ZGGG Airport Information

Runway Information
Runway 02L Length 11811 ft width 148 ft
Elevation 41 ft Threshold 0 ft Heading 14
Runway 20R Length 11811 ft Width 148 ft
Elevation 43 ft Threshold 0 ft Heading 194
Runway 02R Length 12467 ft width 197 ft
Elevation 45 ft Threshold 0 ft Heading 14
Runway 20L Length 12467 ft Width 197 ft
Elevation 48 ft Threshold 670 ft Heading 194
Airport Frequencies
Type APP Name GUANGZHOU Frequency 120.4 MHZ
Type ATIS Name ATIS Frequency 128.6 MHZ
Type CLD Name CLD Frequency 121.95 MHZ
Type GND Name GND Frequency 121.75 MHZ
Type TWR Name TWR Frequency 118.1 MHZ
Airport Navaids
Type VOR-DME Name Cencun Frequency 114600 KHZ
Type VOR-DME Name Conghua Frequency 113000 KHZ
Type NDB Name Baiyun Frequency 411 KHZ
Type NDB Name Yanbu Frequency 423 KHZ
Type VOR-DME Name Yuantan Frequency 108600 KHZ
Airport Weather Information & NOTAM
ADDS - METARS form results

(0548 UTC 23 July 2018)
 
METAR text: ZGGG 230530Z VRB01MPS 8000 -TSRA FEW010 FEW040CB BKN040 27/26 Q1001 RESHRA BECMG AT0550 6000 -SHRA
Conditions at: ZGGG (GUANGZHOU/BAIYUN, CN) observed 0530 UTC 23 July 2018
Temperature: 27.0°C (81°F)
Dewpoint: 26.0°C (79°F) [RH = 94%]
Pressure (altimeter): 29.56 inches Hg (1001.0 mb)
Winds: variable direction winds at 2 MPH (2 knots; 1.0 m/s)
Visibility: 5 miles (8 km)
Ceiling: 4000 feet AGL
Clouds: few clouds at 1000 feet AGL
few clouds at 4000 feet AGL
broken clouds at 4000 feet AGL
Weather: -TSRA  (light rain associated with thunderstorm(s))

METAR text: ZGGG 230500Z 17006G11MPS 1700 R20L/1200U R20R/1300U R19/1300D +TSRA SCT005 BKN023CB SCT023 26/25 Q1001 BECMG AT0550 6000 -SHRA
Conditions at: ZGGG (GUANGZHOU/BAIYUN, CN) observed 0500 UTC 23 July 2018
Temperature: 26.0°C (79°F)
Dewpoint: 25.0°C (77°F) [RH = 94%]
Pressure (altimeter): 29.56 inches Hg (1001.0 mb)
Winds: from the S (170 degrees) at 14 MPH (12 knots; 6.2 m/s)
gusting to 24 MPH (21 knots; 10.9 m/s)
Visibility: 1.06 miles (1.71 km)
Ceiling: 2300 feet AGL
Clouds: scattered clouds at 500 feet AGL
broken clouds at 2300 feet AGL
scattered clouds at 2300 feet AGL
Weather: +TSRA  (heavy rain associated with thunderstorm(s))